createdAt,value
2023-10-26T00:01:23.168Z,100.00
2023-10-26T00:03:50.288Z,100.00
2023-10-26T00:06:17.429Z,100.00
2023-10-26T00:08:44.504Z,100.00
2023-10-26T00:11:11.545Z,100.00
2023-10-26T00:13:38.568Z,100.00
2023-10-26T00:16:05.992Z,100.00
2023-10-26T00:18:33.160Z,100.00
2023-10-26T00:21:01.538Z,100.00
2023-10-26T00:23:28.982Z,100.00
2023-10-26T00:25:56.210Z,100.00
2023-10-26T00:28:23.310Z,100.00
2023-10-26T00:30:50.354Z,100.00
2023-10-26T00:33:17.427Z,100.00
2023-10-26T00:35:44.504Z,100.00
2023-10-26T00:38:11.967Z,100.00
2023-10-26T00:40:39.098Z,100.00
2023-10-26T00:43:06.125Z,100.00
2023-10-26T00:45:36.666Z,100.00
2023-10-26T00:48:06.617Z,100.00
2023-10-26T00:50:33.980Z,100.00
2023-10-26T00:53:01.737Z,100.00
2023-10-26T00:55:30.221Z,100.00
2023-10-26T00:57:57.272Z,100.00
2023-10-26T01:00:25.225Z,100.00
2023-10-26T01:02:52.445Z,100.00
2023-10-26T01:05:19.603Z,100.00
2023-10-26T01:07:48.253Z,100.00
2023-10-26T01:10:15.620Z,100.00
2023-10-26T01:12:42.939Z,100.00
2023-10-26T01:15:10.347Z,100.00
2023-10-26T01:17:37.510Z,100.00
2023-10-26T01:20:07.014Z,100.00
2023-10-26T01:22:34.108Z,100.00
2023-10-26T01:25:01.170Z,100.00
2023-10-26T01:27:28.242Z,100.00
2023-10-26T01:29:56.385Z,100.00
2023-10-26T01:32:27.826Z,100.00
2023-10-26T01:34:54.965Z,100.00
2023-10-26T01:37:22.188Z,100.00
2023-10-26T01:39:49.220Z,100.00
2023-10-26T01:42:16.308Z,100.00
2023-10-26T01:44:45.271Z,100.00
2023-10-26T01:47:14.172Z,100.00
2023-10-26T01:49:41.507Z,100.00
2023-10-26T01:52:08.532Z,100.00
2023-10-26T01:54:35.554Z,100.00
2023-10-26T01:57:05.556Z,100.00
2023-10-26T01:59:32.943Z,100.00
2023-10-26T02:02:00.009Z,100.00
2023-10-26T02:04:27.049Z,100.00
2023-10-26T02:06:54.206Z,100.00
2023-10-26T02:09:21.312Z,100.00
2023-10-26T02:11:48.350Z,100.00
2023-10-26T02:14:15.444Z,100.00
2023-10-26T02:16:42.442Z,100.00
2023-10-26T02:19:09.429Z,100.00
2023-10-26T02:21:36.651Z,100.00
2023-10-26T02:24:04.090Z,100.00
2023-10-26T02:26:31.108Z,100.00
2023-10-26T02:28:58.066Z,100.00
2023-10-26T02:31:25.098Z,100.00
2023-10-26T02:33:52.073Z,100.00
2023-10-26T02:36:19.148Z,100.00
2023-10-26T02:38:46.225Z,100.00
2023-10-26T02:41:13.330Z,100.00
2023-10-26T02:43:41.237Z,100.00
2023-10-26T02:46:10.249Z,100.00
2023-10-26T02:48:38.666Z,100.00
2023-10-26T02:51:07.003Z,100.00
2023-10-26T02:53:34.805Z,100.00
2023-10-26T02:56:01.883Z,100.00
2023-10-26T02:58:28.921Z,100.00
2023-10-26T03:00:56.447Z,100.00
2023-10-26T03:03:23.883Z,100.00
2023-10-26T03:05:52.636Z,100.00
2023-10-26T03:08:21.047Z,100.00
2023-10-26T03:10:48.154Z,100.00
2023-10-26T03:13:15.136Z,100.00
2023-10-26T03:15:42.127Z,100.00
2023-10-26T03:18:09.402Z,100.00
2023-10-26T03:20:36.451Z,100.00
2023-10-26T03:23:03.469Z,100.00
2023-10-26T03:25:30.519Z,100.00
2023-10-26T03:27:57.652Z,100.00
2023-10-26T03:30:24.828Z,100.00
2023-10-26T03:32:52.133Z,100.00
2023-10-26T03:35:19.270Z,100.00
2023-10-26T03:37:46.363Z,100.00
2023-10-26T03:40:15.747Z,100.00
2023-10-26T03:42:43.317Z,100.00
2023-10-26T03:45:11.354Z,100.00
2023-10-26T03:47:40.127Z,100.00
2023-10-26T03:50:08.469Z,100.00
2023-10-26T03:52:35.939Z,100.00
2023-10-26T03:55:05.431Z,100.00
2023-10-26T03:57:35.247Z,100.00
2023-10-26T04:00:05.059Z,100.00
2023-10-26T04:02:38.897Z,100.00
2023-10-26T04:05:06.098Z,100.00
2023-10-26T04:07:34.662Z,100.00
2023-10-26T04:10:02.892Z,100.00
2023-10-26T04:12:29.865Z,100.00
2023-10-26T04:14:56.909Z,100.00
2023-10-26T04:17:23.982Z,100.00
2023-10-26T04:19:51.054Z,100.00
2023-10-26T04:22:18.032Z,100.00
2023-10-26T04:24:45.196Z,100.00
2023-10-26T04:27:12.444Z,100.00
2023-10-26T04:29:39.672Z,100.00
2023-10-26T04:32:07.907Z,100.00
2023-10-26T04:34:35.156Z,100.00
2023-10-26T04:37:02.199Z,100.00
2023-10-26T04:39:29.331Z,100.00
2023-10-26T04:41:56.438Z,100.00
2023-10-26T04:44:23.553Z,100.00
2023-10-26T04:46:50.548Z,100.00
2023-10-26T04:49:17.499Z,100.00
2023-10-26T04:51:44.541Z,100.00
2023-10-26T04:54:11.575Z,100.00
2023-10-26T04:56:38.581Z,100.00
2023-10-26T04:59:05.770Z,100.00
2023-10-26T05:01:32.751Z,100.00
2023-10-26T05:03:59.903Z,100.00
2023-10-26T05:06:27.190Z,100.00
2023-10-26T05:08:54.441Z,100.00
2023-10-26T05:11:21.808Z,100.00
2023-10-26T05:13:50.008Z,100.00
2023-10-26T05:16:17.004Z,100.00
2023-10-26T05:18:44.043Z,100.00
2023-10-26T05:21:11.250Z,100.00
2023-10-26T05:23:40.891Z,100.00
2023-10-26T05:26:07.944Z,100.00
2023-10-26T05:28:35.014Z,100.00
2023-10-26T05:31:02.114Z,100.00
2023-10-26T05:33:29.150Z,100.00
2023-10-26T05:35:56.230Z,100.00
2023-10-26T05:38:23.507Z,100.00
2023-10-26T05:40:55.136Z,100.00
2023-10-26T05:43:25.523Z,100.00
2023-10-26T05:45:53.735Z,100.00
2023-10-26T05:48:20.958Z,100.00
2023-10-26T05:50:47.968Z,100.00
2023-10-26T05:53:14.966Z,100.00
2023-10-26T05:55:42.072Z,100.00
2023-10-26T05:58:11.908Z,100.00
2023-10-26T06:00:39.756Z,100.00
2023-10-26T06:03:06.990Z,100.00
2023-10-26T06:05:34.090Z,100.00
2023-10-26T06:08:01.121Z,100.00
2023-10-26T06:10:28.300Z,100.00
2023-10-26T06:12:55.310Z,100.00
2023-10-26T06:15:22.491Z,100.00
2023-10-26T06:17:49.686Z,100.00
2023-10-26T06:20:18.000Z,100.00
2023-10-26T06:22:45.107Z,100.00
2023-10-26T06:25:12.329Z,100.00
2023-10-26T06:27:39.308Z,100.00
2023-10-26T06:30:07.725Z,100.00
2023-10-26T06:32:36.615Z,100.00
2023-10-26T06:35:03.831Z,100.00
2023-10-26T06:37:30.850Z,100.00
2023-10-26T06:39:57.864Z,100.00
2023-10-26T06:42:25.172Z,100.00
2023-10-26T06:44:59.538Z,100.00
2023-10-26T06:47:26.710Z,100.00
2023-10-26T06:49:53.812Z,100.00
2023-10-26T06:52:20.826Z,100.00
2023-10-26T06:54:51.855Z,100.00
2023-10-26T06:57:18.932Z,100.00
2023-10-26T06:59:46.722Z,100.00
2023-10-26T07:02:13.877Z,100.00
2023-10-26T07:04:41.142Z,100.00
2023-10-26T07:07:09.320Z,100.00
2023-10-26T07:09:38.133Z,100.00
2023-10-26T07:12:05.813Z,100.00
2023-10-26T07:14:32.975Z,100.00
2023-10-26T07:17:00.050Z,100.00
2023-10-26T07:19:27.046Z,100.00
2023-10-26T07:21:54.323Z,100.00
2023-10-26T07:24:21.354Z,100.00
2023-10-26T07:26:51.325Z,100.00
2023-10-26T07:29:18.612Z,100.00
2023-10-26T07:31:47.846Z,100.00
2023-10-26T07:34:15.682Z,100.00
2023-10-26T07:36:43.296Z,100.00
2023-10-26T07:39:44.644Z,100.00
2023-10-26T07:42:06.317Z,100.00
2023-10-26T07:44:36.947Z,100.00
2023-10-26T07:47:05.056Z,100.00
2023-10-26T07:49:32.424Z,100.00
2023-10-26T07:51:59.410Z,100.00
2023-10-26T07:54:26.515Z,100.00
2023-10-26T07:56:53.585Z,100.00
2023-10-26T07:59:20.615Z,100.00
2023-10-26T08:01:49.187Z,100.00
2023-10-26T08:04:16.338Z,100.00
2023-10-26T08:06:43.505Z,100.00
2023-10-26T08:09:10.612Z,100.00
2023-10-26T08:11:38.384Z,100.00
2023-10-26T08:14:35.618Z,100.00
2023-10-26T08:16:53.590Z,100.00
2023-10-26T08:19:21.011Z,100.00
2023-10-26T08:21:48.046Z,100.00
2023-10-26T08:24:16.954Z,100.00
2023-10-26T08:26:44.213Z,100.00
2023-10-26T08:29:18.426Z,100.00
2023-10-26T08:31:45.868Z,100.00
2023-10-26T08:34:13.055Z,100.00
2023-10-26T08:36:42.155Z,100.00
2023-10-26T08:39:11.804Z,100.00
2023-10-26T08:41:38.825Z,100.00
2023-10-26T08:44:06.549Z,100.00
2023-10-26T08:46:33.786Z,100.00
2023-10-26T08:49:03.576Z,100.00
2023-10-26T08:51:30.646Z,100.00
2023-10-26T08:53:58.473Z,100.00
2023-10-26T08:56:25.647Z,100.00
2023-10-26T08:59:00.344Z,100.00
2023-10-26T09:01:27.476Z,100.00
2023-10-26T09:03:54.660Z,100.00
2023-10-26T09:06:21.738Z,100.00
2023-10-26T09:09:02.727Z,100.00
2023-10-26T09:11:29.884Z,100.00
2023-10-26T09:14:17.327Z,100.00
2023-10-26T09:16:46.741Z,100.00
2023-10-26T09:19:19.390Z,100.00
2023-10-26T09:21:56.373Z,100.00
2023-10-26T09:24:26.377Z,100.00
2023-10-26T09:27:04.397Z,100.00
2023-10-26T09:29:45.827Z,100.00
2023-10-26T09:32:13.350Z,100.00
2023-10-26T09:34:43.322Z,100.00
2023-10-26T09:37:12.779Z,100.00
2023-10-26T09:39:42.733Z,100.00
2023-10-26T09:42:13.061Z,100.00
2023-10-26T09:44:40.516Z,100.00
2023-10-26T09:47:08.490Z,100.00
2023-10-26T09:49:35.734Z,100.00
2023-10-26T09:52:03.166Z,100.00
2023-10-26T09:54:37.272Z,100.00
2023-10-26T09:57:31.323Z,100.00
2023-10-26T10:00:01.615Z,100.00
2023-10-26T10:02:28.777Z,100.00
2023-10-26T10:04:55.953Z,100.00
2023-10-26T10:07:46.261Z,100.00
2023-10-26T10:10:14.912Z,100.00
2023-10-26T10:12:43.808Z,100.00
2023-10-26T10:17:45.580Z,100.00
2023-10-26T10:20:15.658Z,100.00
2023-10-26T10:22:45.858Z,100.00
2023-10-26T10:25:14.309Z,100.00
2023-10-26T10:28:01.962Z,100.00
2023-10-26T10:30:47.097Z,100.00
2023-10-26T10:33:26.574Z,100.00
2023-10-26T10:36:05.580Z,100.00
2023-10-26T10:38:33.394Z,100.00
2023-10-26T10:41:00.370Z,100.00
2023-10-26T10:43:37.139Z,100.00
2023-10-26T10:46:11.503Z,100.00
2023-10-26T10:48:55.687Z,100.00
2023-10-26T10:51:23.575Z,100.00
2023-10-26T10:53:53.719Z,100.00
2023-10-26T10:56:20.853Z,100.00
2023-10-26T10:58:47.808Z,100.00
2023-10-26T11:01:21.877Z,100.00
2023-10-26T11:03:50.297Z,100.00
2023-10-26T11:06:19.683Z,100.00
2023-10-26T11:08:46.773Z,100.00
2023-10-26T11:11:34.722Z,100.00
2023-10-26T11:14:11.528Z,100.00
2023-10-26T11:16:42.050Z,100.00
2023-10-26T11:19:09.086Z,100.00
2023-10-26T11:21:36.521Z,100.00
2023-10-26T11:24:03.823Z,100.00
2023-10-26T11:26:30.886Z,100.00
2023-10-26T11:28:57.903Z,100.00
2023-10-26T11:31:42.758Z,100.00
2023-10-26T11:34:11.651Z,100.00
2023-10-26T11:36:39.453Z,100.00
2023-10-26T11:39:07.082Z,100.00
2023-10-26T11:41:34.881Z,100.00
2023-10-26T11:44:02.647Z,100.00
2023-10-26T11:46:38.066Z,100.00
2023-10-26T11:49:06.591Z,100.00
2023-10-26T11:51:36.086Z,100.00
2023-10-26T11:54:13.279Z,100.00
2023-10-26T11:56:40.374Z,100.00
2023-10-26T11:59:07.413Z,100.00
2023-10-26T12:01:35.201Z,100.00
2023-10-26T12:04:02.344Z,100.00
2023-10-26T12:06:32.445Z,100.00
2023-10-26T12:08:59.523Z,100.00
2023-10-26T12:11:26.740Z,100.00
2023-10-26T12:13:53.731Z,100.00
2023-10-26T12:16:20.820Z,100.00
2023-10-26T12:18:47.904Z,100.00
2023-10-26T12:21:16.848Z,100.00
2023-10-26T12:23:43.871Z,100.00
2023-10-26T12:26:10.804Z,100.00
2023-10-26T12:28:37.798Z,100.00
2023-10-26T12:31:04.897Z,100.00
2023-10-26T12:33:31.979Z,100.00
2023-10-26T12:35:58.998Z,100.00
2023-10-26T12:38:26.075Z,100.00
2023-10-26T12:40:53.111Z,100.00
2023-10-26T12:43:20.114Z,100.00
2023-10-26T12:45:47.157Z,100.00
2023-10-26T12:48:14.192Z,100.00
2023-10-26T12:50:41.284Z,100.00
2023-10-26T12:53:08.259Z,100.00
2023-10-26T12:55:35.705Z,100.00
2023-10-26T12:58:02.838Z,100.00
2023-10-26T13:00:31.519Z,100.00
2023-10-26T13:02:58.860Z,100.00
2023-10-26T13:05:25.917Z,100.00
2023-10-26T13:07:53.473Z,100.00
2023-10-26T13:10:20.590Z,100.00
2023-10-26T13:12:48.413Z,100.00
2023-10-26T13:15:19.343Z,100.00
2023-10-26T13:17:49.227Z,100.00
2023-10-26T13:20:16.369Z,100.00
2023-10-26T13:22:43.351Z,100.00
2023-10-26T13:25:10.373Z,100.00
2023-10-26T13:27:37.468Z,100.00
2023-10-26T13:30:05.374Z,100.00
2023-10-26T13:32:32.435Z,100.00
2023-10-26T13:34:59.389Z,100.00
2023-10-26T13:37:26.507Z,100.00
2023-10-26T13:39:53.550Z,100.00
2023-10-26T13:42:20.667Z,100.00
2023-10-26T13:44:47.596Z,97.77
2023-10-26T13:47:14.581Z,97.61
2023-10-26T13:49:41.951Z,97.90
2023-10-26T13:52:09.730Z,98.34
2023-10-26T13:54:37.260Z,95.37
2023-10-26T13:57:04.837Z,95.63
2023-10-26T13:59:32.021Z,96.51
2023-10-26T14:01:59.116Z,97.55
2023-10-26T14:04:26.189Z,100.00
2023-10-26T14:06:53.249Z,100.00
2023-10-26T14:09:20.325Z,100.00
2023-10-26T14:11:47.266Z,100.00
2023-10-26T14:14:14.308Z,100.00
2023-10-26T14:16:41.340Z,100.00
2023-10-26T14:19:09.914Z,100.00
2023-10-26T14:21:37.500Z,100.00
2023-10-26T14:24:04.986Z,100.00
2023-10-26T14:26:32.025Z,100.00
2023-10-26T14:28:59.036Z,100.00
2023-10-26T14:31:26.199Z,100.00
2023-10-26T14:33:53.924Z,100.00
2023-10-26T14:36:22.307Z,100.00
2023-10-26T14:38:52.560Z,100.00
2023-10-26T14:41:19.997Z,100.00
2023-10-26T14:43:47.952Z,100.00
2023-10-26T14:46:15.298Z,100.00
2023-10-26T14:48:42.419Z,100.00
2023-10-26T14:51:09.626Z,100.00
2023-10-26T14:53:36.616Z,100.00
2023-10-26T14:56:05.272Z,100.00
2023-10-26T14:58:32.661Z,100.00
2023-10-26T15:00:59.810Z,100.00
2023-10-26T15:03:26.859Z,100.00
2023-10-26T15:05:54.848Z,100.00
2023-10-26T15:08:22.005Z,100.00
2023-10-26T15:10:51.114Z,100.00
2023-10-26T15:13:19.784Z,100.00
2023-10-26T15:15:48.716Z,100.00
2023-10-26T15:18:15.733Z,100.00
2023-10-26T15:20:42.797Z,100.00
2023-10-26T15:23:10.270Z,100.00
2023-10-26T15:25:37.540Z,100.00
2023-10-26T15:28:04.819Z,100.00
2023-10-26T15:30:32.113Z,100.00
2023-10-26T15:32:59.667Z,100.00
2023-10-26T15:35:28.819Z,100.00
2023-10-26T15:37:56.182Z,100.00
2023-10-26T15:40:23.394Z,100.00
2023-10-26T15:42:50.743Z,100.00
2023-10-26T15:45:18.036Z,100.00
2023-10-26T15:47:45.193Z,100.00
2023-10-26T15:50:12.383Z,100.00
2023-10-26T15:52:39.505Z,100.00
2023-10-26T15:55:07.171Z,100.00
2023-10-26T15:57:34.451Z,100.00
2023-10-26T16:00:01.706Z,100.00
2023-10-26T16:02:28.805Z,100.00
2023-10-26T16:04:55.824Z,100.00
2023-10-26T16:07:22.839Z,100.00
2023-10-26T16:09:49.946Z,100.00
2023-10-26T16:12:17.135Z,100.00
2023-10-26T16:14:44.490Z,100.00
2023-10-26T16:17:12.517Z,100.00
2023-10-26T16:19:39.526Z,100.00
2023-10-26T16:22:08.885Z,100.00
2023-10-26T16:24:36.243Z,100.00
2023-10-26T16:27:03.774Z,100.00
2023-10-26T16:29:31.761Z,100.00
2023-10-26T16:31:58.799Z,100.00
2023-10-26T16:34:25.814Z,100.00
2023-10-26T16:36:53.413Z,100.00
2023-10-26T16:39:20.510Z,100.00
2023-10-26T16:41:47.518Z,100.00
2023-10-26T16:44:14.766Z,100.00
2023-10-26T16:46:42.098Z,100.00
2023-10-26T16:49:09.162Z,100.00
2023-10-26T16:51:36.296Z,100.00
2023-10-26T16:54:04.684Z,100.00
2023-10-26T16:56:31.830Z,100.00
2023-10-26T16:58:58.834Z,100.00
2023-10-26T17:01:28.643Z,100.00
2023-10-26T17:03:55.820Z,100.00
2023-10-26T17:06:22.843Z,100.00
2023-10-26T17:08:49.922Z,100.00
2023-10-26T17:11:16.899Z,100.00
2023-10-26T17:13:43.870Z,100.00
2023-10-26T17:16:17.040Z,100.00
2023-10-26T17:18:46.598Z,100.00
2023-10-26T17:21:13.687Z,100.00
2023-10-26T17:23:42.586Z,100.00
2023-10-26T17:26:14.524Z,100.00
2023-10-26T17:28:41.998Z,100.00
2023-10-26T17:31:13.846Z,100.00
2023-10-26T17:33:40.951Z,100.00
2023-10-26T17:36:08.047Z,100.00
2023-10-26T17:38:35.183Z,100.00
2023-10-26T17:41:10.375Z,100.00
2023-10-26T17:43:37.916Z,100.00
2023-10-26T17:46:05.292Z,100.00
2023-10-26T17:48:33.775Z,100.00
2023-10-26T17:51:04.374Z,100.00
2023-10-26T17:53:31.389Z,100.00
2023-10-26T17:55:59.929Z,100.00
2023-10-26T17:58:27.992Z,100.00
2023-10-26T18:01:11.581Z,100.00
2023-10-26T18:03:40.773Z,100.00
2023-10-26T18:06:08.560Z,100.00
2023-10-26T18:08:38.448Z,100.00
2023-10-26T18:11:06.061Z,100.00
2023-10-26T18:13:35.333Z,100.00
2023-10-26T18:16:10.541Z,100.00
2023-10-26T18:18:39.378Z,100.00
2023-10-26T18:21:08.921Z,100.00
2023-10-26T18:23:37.901Z,100.00
2023-10-26T18:26:10.398Z,100.00
2023-10-26T18:28:40.143Z,100.00
2023-10-26T18:31:09.946Z,100.00
2023-10-26T18:33:38.071Z,100.00
2023-10-26T18:36:17.477Z,100.00
2023-10-26T18:38:45.345Z,100.00
2023-10-26T18:41:25.353Z,100.00
2023-10-26T18:43:56.782Z,100.00
2023-10-26T18:46:24.816Z,100.00
2023-10-26T18:48:51.942Z,100.00
2023-10-26T18:51:20.358Z,100.00
2023-10-26T18:53:48.488Z,100.00
2023-10-26T18:56:20.153Z,100.00
2023-10-26T18:58:47.133Z,100.00
2023-10-26T19:01:14.207Z,100.00
2023-10-26T19:03:57.440Z,100.00
2023-10-26T19:06:28.476Z,100.00
2023-10-26T19:08:55.604Z,100.00
2023-10-26T19:11:22.653Z,100.00
2023-10-26T19:13:52.732Z,100.00
2023-10-26T19:16:20.236Z,100.00
2023-10-26T19:18:51.647Z,100.00
2023-10-26T19:21:22.491Z,100.00
2023-10-26T19:23:49.889Z,100.00
2023-10-26T19:26:17.064Z,100.00
2023-10-26T19:28:44.101Z,100.00
2023-10-26T19:31:12.862Z,100.00
2023-10-26T19:33:43.109Z,100.00
2023-10-26T19:36:10.671Z,100.00
2023-10-26T19:38:37.701Z,100.00
2023-10-26T19:41:05.090Z,100.00
2023-10-26T19:43:32.151Z,100.00
2023-10-26T19:45:59.167Z,100.00
2023-10-26T19:48:26.205Z,100.00
2023-10-26T19:50:53.376Z,100.00
2023-10-26T19:53:20.612Z,100.00
2023-10-26T19:55:47.609Z,100.00
2023-10-26T19:58:14.603Z,100.00
2023-10-26T20:00:41.715Z,100.00
2023-10-26T20:03:08.881Z,100.00
2023-10-26T20:05:36.144Z,100.00
2023-10-26T20:08:05.594Z,100.00
2023-10-26T20:10:32.686Z,100.00
2023-10-26T20:13:01.653Z,100.00
2023-10-26T20:15:28.720Z,100.00
2023-10-26T20:17:55.752Z,100.00
2023-10-26T20:20:29.130Z,100.00
2023-10-26T20:22:56.226Z,100.00
2023-10-26T20:25:23.228Z,100.00
2023-10-26T20:27:52.331Z,100.00
2023-10-26T20:30:20.171Z,100.00
2023-10-26T20:32:47.146Z,100.00
2023-10-26T20:35:14.195Z,100.00
2023-10-26T20:37:41.248Z,100.00
2023-10-26T20:40:09.065Z,100.00
2023-10-26T20:42:37.930Z,100.00
2023-10-26T20:45:05.633Z,100.00
2023-10-26T20:47:32.701Z,100.00
2023-10-26T20:49:59.706Z,100.00
2023-10-26T20:52:28.258Z,100.00
2023-10-26T20:54:55.409Z,100.00
2023-10-26T20:57:22.438Z,100.00
2023-10-26T20:59:49.963Z,100.00
2023-10-26T21:02:17.067Z,100.00
2023-10-26T21:04:44.111Z,100.00
2023-10-26T21:07:11.128Z,100.00
2023-10-26T21:09:38.162Z,100.00
2023-10-26T21:12:05.399Z,100.00
2023-10-26T21:14:32.536Z,100.00
2023-10-26T21:17:00.197Z,100.00
2023-10-26T21:19:27.218Z,100.00
2023-10-26T21:21:58.441Z,100.00
2023-10-26T21:24:25.707Z,100.00
2023-10-26T21:26:52.723Z,100.00
2023-10-26T21:29:19.744Z,100.00
2023-10-26T21:31:46.753Z,100.00
2023-10-26T21:34:13.837Z,100.00
2023-10-26T21:36:41.262Z,100.00
2023-10-26T21:39:08.306Z,100.00
2023-10-26T21:41:35.361Z,100.00
2023-10-26T21:44:02.422Z,100.00
2023-10-26T21:46:29.506Z,100.00
2023-10-26T21:48:57.089Z,100.00
2023-10-26T21:51:24.169Z,100.00
2023-10-26T21:53:51.165Z,100.00
2023-10-26T21:56:18.157Z,100.00
2023-10-26T21:58:45.604Z,100.00
2023-10-26T22:01:13.478Z,100.00
2023-10-26T22:03:43.117Z,100.00
2023-10-26T22:06:10.505Z,100.00
2023-10-26T22:08:37.640Z,100.00
2023-10-26T22:11:05.531Z,100.00
2023-10-26T22:13:33.011Z,100.00
2023-10-26T22:16:00.105Z,100.00
2023-10-26T22:18:27.095Z,100.00
2023-10-26T22:20:54.121Z,100.00
2023-10-26T22:23:21.128Z,100.00
2023-10-26T22:25:48.084Z,100.00
2023-10-26T22:28:15.167Z,100.00
2023-10-26T22:30:42.405Z,100.00
2023-10-26T22:33:09.464Z,100.00
2023-10-26T22:35:36.396Z,100.00
2023-10-26T22:38:03.379Z,100.00
2023-10-26T22:40:30.926Z,100.00
2023-10-26T22:42:57.955Z,100.00
2023-10-26T22:45:25.164Z,100.00
2023-10-26T22:47:53.593Z,100.00
2023-10-26T22:50:20.634Z,100.00
2023-10-26T22:52:47.747Z,100.00
2023-10-26T22:55:15.396Z,100.00
2023-10-26T22:57:43.419Z,100.00
2023-10-26T23:00:12.085Z,100.00
2023-10-26T23:02:40.017Z,100.00
2023-10-26T23:05:08.797Z,100.00
2023-10-26T23:07:36.108Z,100.00
2023-10-26T23:10:03.387Z,100.00
2023-10-26T23:12:30.380Z,100.00
2023-10-26T23:14:57.314Z,100.00
2023-10-26T23:17:24.381Z,100.00
2023-10-26T23:19:52.653Z,100.00
2023-10-26T23:22:19.702Z,100.00
2023-10-26T23:24:47.677Z,100.00
2023-10-26T23:27:14.761Z,100.00
2023-10-26T23:29:41.862Z,100.00
2023-10-26T23:32:08.949Z,100.00
2023-10-26T23:34:36.121Z,100.00
2023-10-26T23:37:03.363Z,100.00
2023-10-26T23:39:30.633Z,100.00
2023-10-26T23:41:57.585Z,100.00
2023-10-26T23:44:24.561Z,100.00
2023-10-26T23:46:51.572Z,100.00
2023-10-26T23:49:18.629Z,100.00
2023-10-26T23:51:45.646Z,100.00
2023-10-26T23:54:12.645Z,100.00
2023-10-26T23:56:39.688Z,100.00
2023-10-26T23:59:06.851Z,100.00
